Terminal Aerodrome Forecast
Issued by NWS Austin/San Antonio, TX

Home | Current Version | Previous Version | Text Only | Print | Product List | Glossary On
Versions: 1 2 3 4 5 6 7 8 9 10 11 12 13 14 15
711
FTUS44 KEWX 200531
TAFDRT
TAF
KDRT 200531Z 2006/2106 13010KT P6SM FEW050 BKN250
     FM200900 12009KT P6SM OVC015
     FM201200 12008KT 5SM BR OVC006
     FM201700 13010KT P6SM BKN015
     FM201900 14012KT P6SM SCT040 BKN250=

USA.gov is the U.S. government's official web portal to all federal, state and local government web resources and services.